sensor_id;sensor_type;location;lat;lon;timestamp;P1;durP1;ratioP1;P2;durP2;ratioP2
14066;SDS011;7108;42.684;23.350;2023-08-20T00:01:38;132.60;;;71.03;;
14066;SDS011;7108;42.684;23.350;2023-08-20T00:04:04;129.23;;;70.03;;
14066;SDS011;7108;42.684;23.350;2023-08-20T00:06:30;133.03;;;68.90;;
14066;SDS011;7108;42.684;23.350;2023-08-20T00:08:55;129.00;;;69.50;;
14066;SDS011;7108;42.684;23.350;2023-08-20T00:11:21;120.97;;;68.23;;
14066;SDS011;7108;42.684;23.350;2023-08-20T00:13:46;134.20;;;71.97;;
14066;SDS011;7108;42.684;23.350;2023-08-20T00:16:12;119.93;;;67.13;;
14066;SDS011;7108;42.684;23.350;2023-08-20T00:18:38;136.00;;;69.23;;
14066;SDS011;7108;42.684;23.350;2023-08-20T00:21:04;130.87;;;69.07;;
14066;SDS011;7108;42.684;23.350;2023-08-20T00:23:30;130.07;;;70.43;;
14066;SDS011;7108;42.684;23.350;2023-08-20T00:25:56;147.17;;;71.83;;
14066;SDS011;7108;42.684;23.350;2023-08-20T00:28:22;115.20;;;70.40;;
14066;SDS011;7108;42.684;23.350;2023-08-20T00:30:47;137.43;;;71.93;;
14066;SDS011;7108;42.684;23.350;2023-08-20T00:33:14;119.37;;;68.60;;
14066;SDS011;7108;42.684;23.350;2023-08-20T00:35:39;131.30;;;71.03;;
14066;SDS011;7108;42.684;23.350;2023-08-20T00:38:05;128.83;;;71.23;;
14066;SDS011;7108;42.684;23.350;2023-08-20T00:40:32;131.90;;;70.73;;
14066;SDS011;7108;42.684;23.350;2023-08-20T00:42:57;143.20;;;70.60;;
14066;SDS011;7108;42.684;23.350;2023-08-20T00:45:23;116.73;;;67.00;;
14066;SDS011;7108;42.684;23.350;2023-08-20T00:47:49;127.37;;;68.30;;
14066;SDS011;7108;42.684;23.350;2023-08-20T00:50:15;127.73;;;69.87;;
14066;SDS011;7108;42.684;23.350;2023-08-20T00:52:41;140.87;;;71.07;;
14066;SDS011;7108;42.684;23.350;2023-08-20T00:55:08;130.10;;;71.03;;
14066;SDS011;7108;42.684;23.350;2023-08-20T00:57:35;124.63;;;68.63;;
14066;SDS011;7108;42.684;23.350;2023-08-20T01:00:01;145.57;;;70.43;;
14066;SDS011;7108;42.684;23.350;2023-08-20T01:02:31;127.73;;;67.33;;
14066;SDS011;7108;42.684;23.350;2023-08-20T01:04:57;138.17;;;70.97;;
14066;SDS011;7108;42.684;23.350;2023-08-20T01:13:01;145.37;;;72.47;;
14066;SDS011;7108;42.684;23.350;2023-08-20T01:15:27;121.83;;;69.53;;
14066;SDS011;7108;42.684;23.350;2023-08-20T01:17:52;139.13;;;70.90;;
14066;SDS011;7108;42.684;23.350;2023-08-20T01:20:18;122.87;;;67.33;;
14066;SDS011;7108;42.684;23.350;2023-08-20T01:22:52;138.57;;;70.87;;
14066;SDS011;7108;42.684;23.350;2023-08-20T01:28:40;140.93;;;73.73;;
14066;SDS011;7108;42.684;23.350;2023-08-20T01:31:06;139.60;;;72.43;;
14066;SDS011;7108;42.684;23.350;2023-08-20T01:33:32;128.83;;;70.37;;
14066;SDS011;7108;42.684;23.350;2023-08-20T01:35:59;143.23;;;72.03;;
14066;SDS011;7108;42.684;23.350;2023-08-20T01:38:24;124.53;;;69.13;;
14066;SDS011;7108;42.684;23.350;2023-08-20T01:40:50;139.17;;;70.37;;
14066;SDS011;7108;42.684;23.350;2023-08-20T01:43:15;127.07;;;71.43;;
14066;SDS011;7108;42.684;23.350;2023-08-20T01:45:41;132.93;;;72.10;;
14066;SDS011;7108;42.684;23.350;2023-08-20T01:48:07;129.13;;;72.87;;
14066;SDS011;7108;42.684;23.350;2023-08-20T01:50:33;132.20;;;71.40;;
14066;SDS011;7108;42.684;23.350;2023-08-20T01:53:00;142.10;;;72.53;;
14066;SDS011;7108;42.684;23.350;2023-08-20T01:55:25;121.57;;;70.07;;
14066;SDS011;7108;42.684;23.350;2023-08-20T01:57:51;134.53;;;71.70;;
14066;SDS011;7108;42.684;23.350;2023-08-20T02:00:16;136.00;;;70.40;;
14066;SDS011;7108;42.684;23.350;2023-08-20T02:02:42;137.57;;;71.33;;
14066;SDS011;7108;42.684;23.350;2023-08-20T02:05:07;127.43;;;70.80;;
14066;SDS011;7108;42.684;23.350;2023-08-20T02:07:33;130.27;;;70.30;;
14066;SDS011;7108;42.684;23.350;2023-08-20T02:09:58;141.70;;;70.40;;
14066;SDS011;7108;42.684;23.350;2023-08-20T02:12:25;139.87;;;70.47;;
14066;SDS011;7108;42.684;23.350;2023-08-20T02:14:51;136.27;;;71.53;;
14066;SDS011;7108;42.684;23.350;2023-08-20T02:17:17;133.27;;;70.60;;
14066;SDS011;7108;42.684;23.350;2023-08-20T02:19:42;129.07;;;70.50;;
14066;SDS011;7108;42.684;23.350;2023-08-20T02:22:08;130.63;;;70.63;;
14066;SDS011;7108;42.684;23.350;2023-08-20T02:24:33;131.20;;;69.80;;
14066;SDS011;7108;42.684;23.350;2023-08-20T02:26:58;138.27;;;71.00;;
14066;SDS011;7108;42.684;23.350;2023-08-20T02:29:24;122.27;;;69.87;;
14066;SDS011;7108;42.684;23.350;2023-08-20T02:31:49;126.00;;;68.47;;
14066;SDS011;7108;42.684;23.350;2023-08-20T02:34:15;125.20;;;69.97;;
14066;SDS011;7108;42.684;23.350;2023-08-20T02:36:40;125.83;;;69.83;;
14066;SDS011;7108;42.684;23.350;2023-08-20T02:39:06;138.53;;;72.00;;
14066;SDS011;7108;42.684;23.350;2023-08-20T02:41:36;126.00;;;68.93;;
14066;SDS011;7108;42.684;23.350;2023-08-20T02:44:02;137.60;;;71.73;;
14066;SDS011;7108;42.684;23.350;2023-08-20T02:46:28;127.77;;;69.63;;
14066;SDS011;7108;42.684;23.350;2023-08-20T02:48:53;143.27;;;71.57;;
14066;SDS011;7108;42.684;23.350;2023-08-20T02:51:19;136.93;;;72.43;;
14066;SDS011;7108;42.684;23.350;2023-08-20T02:53:44;123.30;;;68.47;;
14066;SDS011;7108;42.684;23.350;2023-08-20T02:56:10;127.43;;;69.70;;
14066;SDS011;7108;42.684;23.350;2023-08-20T02:58:37;125.23;;;68.87;;
14066;SDS011;7108;42.684;23.350;2023-08-20T03:01:03;140.03;;;70.00;;
14066;SDS011;7108;42.684;23.350;2023-08-20T03:03:28;113.70;;;67.33;;
14066;SDS011;7108;42.684;23.350;2023-08-20T03:05:54;141.70;;;69.43;;
14066;SDS011;7108;42.684;23.350;2023-08-20T03:08:19;135.80;;;70.93;;
14066;SDS011;7108;42.684;23.350;2023-08-20T03:10:45;132.90;;;71.90;;
14066;SDS011;7108;42.684;23.350;2023-08-20T03:13:10;131.67;;;70.77;;
14066;SDS011;7108;42.684;23.350;2023-08-20T03:15:36;126.20;;;69.77;;
14066;SDS011;7108;42.684;23.350;2023-08-20T03:18:01;137.90;;;71.30;;
14066;SDS011;7108;42.684;23.350;2023-08-20T03:20:28;123.33;;;69.80;;
14066;SDS011;7108;42.684;23.350;2023-08-20T03:22:53;140.60;;;72.20;;
14066;SDS011;7108;42.684;23.350;2023-08-20T03:25:19;114.97;;;69.80;;
14066;SDS011;7108;42.684;23.350;2023-08-20T03:27:44;134.50;;;72.10;;
14066;SDS011;7108;42.684;23.350;2023-08-20T03:30:09;126.37;;;71.77;;
14066;SDS011;7108;42.684;23.350;2023-08-20T03:32:35;123.27;;;72.00;;
14066;SDS011;7108;42.684;23.350;2023-08-20T03:35:01;143.03;;;74.57;;
14066;SDS011;7108;42.684;23.350;2023-08-20T03:37:26;134.90;;;73.53;;
14066;SDS011;7108;42.684;23.350;2023-08-20T03:39:52;151.17;;;74.17;;
14066;SDS011;7108;42.684;23.350;2023-08-20T03:42:17;137.80;;;72.60;;
14066;SDS011;7108;42.684;23.350;2023-08-20T03:44:43;137.97;;;73.97;;
14066;SDS011;7108;42.684;23.350;2023-08-20T03:47:08;126.90;;;70.57;;
14066;SDS011;7108;42.684;23.350;2023-08-20T03:49:34;122.47;;;69.80;;
14066;SDS011;7108;42.684;23.350;2023-08-20T03:51:59;141.30;;;72.87;;
14066;SDS011;7108;42.684;23.350;2023-08-20T03:54:27;136.30;;;75.23;;
14066;SDS011;7108;42.684;23.350;2023-08-20T03:56:53;147.33;;;74.97;;
14066;SDS011;7108;42.684;23.350;2023-08-20T03:59:19;137.77;;;74.77;;
14066;SDS011;7108;42.684;23.350;2023-08-20T04:01:44;129.43;;;73.07;;
14066;SDS011;7108;42.684;23.350;2023-08-20T04:04:10;134.63;;;75.10;;
14066;SDS011;7108;42.684;23.350;2023-08-20T04:06:35;126.70;;;74.93;;
14066;SDS011;7108;42.684;23.350;2023-08-20T04:09:01;145.57;;;75.57;;
14066;SDS011;7108;42.684;23.350;2023-08-20T04:11:26;137.00;;;73.20;;
14066;SDS011;7108;42.684;23.350;2023-08-20T04:13:51;140.27;;;75.00;;
14066;SDS011;7108;42.684;23.350;2023-08-20T04:16:17;137.80;;;75.57;;
14066;SDS011;7108;42.684;23.350;2023-08-20T04:18:42;139.63;;;76.40;;
14066;SDS011;7108;42.684;23.350;2023-08-20T04:21:07;132.63;;;74.23;;
14066;SDS011;7108;42.684;23.350;2023-08-20T04:23:33;126.47;;;73.27;;
14066;SDS011;7108;42.684;23.350;2023-08-20T04:25:58;142.27;;;73.40;;
14066;SDS011;7108;42.684;23.350;2023-08-20T04:28:24;138.07;;;73.50;;
14066;SDS011;7108;42.684;23.350;2023-08-20T04:30:51;155.67;;;77.00;;
14066;SDS011;7108;42.684;23.350;2023-08-20T04:33:19;139.33;;;75.43;;
14066;SDS011;7108;42.684;23.350;2023-08-20T04:35:44;132.13;;;75.10;;
14066;SDS011;7108;42.684;23.350;2023-08-20T04:38:10;123.03;;;71.83;;
14066;SDS011;7108;42.684;23.350;2023-08-20T04:40:35;127.10;;;73.03;;
14066;SDS011;7108;42.684;23.350;2023-08-20T04:43:01;138.47;;;75.50;;
14066;SDS011;7108;42.684;23.350;2023-08-20T04:45:26;143.30;;;75.10;;
14066;SDS011;7108;42.684;23.350;2023-08-20T04:47:51;151.07;;;75.13;;
14066;SDS011;7108;42.684;23.350;2023-08-20T04:50:17;129.47;;;72.47;;
14066;SDS011;7108;42.684;23.350;2023-08-20T04:52:42;133.93;;;71.33;;
14066;SDS011;7108;42.684;23.350;2023-08-20T04:55:08;118.43;;;71.70;;
14066;SDS011;7108;42.684;23.350;2023-08-20T04:57:34;121.97;;;71.47;;
14066;SDS011;7108;42.684;23.350;2023-08-20T04:59:59;157.20;;;74.73;;
14066;SDS011;7108;42.684;23.350;2023-08-20T05:02:25;129.73;;;73.30;;
14066;SDS011;7108;42.684;23.350;2023-08-20T05:04:51;156.23;;;76.23;;
14066;SDS011;7108;42.684;23.350;2023-08-20T05:07:17;125.33;;;74.40;;
14066;SDS011;7108;42.684;23.350;2023-08-20T05:09:42;126.27;;;71.30;;
14066;SDS011;7108;42.684;23.350;2023-08-20T05:12:08;130.67;;;71.77;;
14066;SDS011;7108;42.684;23.350;2023-08-20T05:14:33;132.50;;;71.80;;
14066;SDS011;7108;42.684;23.350;2023-08-20T05:16:59;154.13;;;74.07;;
14066;SDS011;7108;42.684;23.350;2023-08-20T05:19:24;139.43;;;73.67;;
14066;SDS011;7108;42.684;23.350;2023-08-20T05:21:50;136.13;;;70.80;;
14066;SDS011;7108;42.684;23.350;2023-08-20T05:24:15;132.93;;;72.20;;
14066;SDS011;7108;42.684;23.350;2023-08-20T05:26:41;126.57;;;71.90;;
14066;SDS011;7108;42.684;23.350;2023-08-20T05:29:06;144.63;;;73.43;;
14066;SDS011;7108;42.684;23.350;2023-08-20T05:31:33;142.57;;;72.03;;
14066;SDS011;7108;42.684;23.350;2023-08-20T05:33:59;165.17;;;76.07;;
14066;SDS011;7108;42.684;23.350;2023-08-20T05:36:24;144.57;;;73.50;;
14066;SDS011;7108;42.684;23.350;2023-08-20T05:38:49;147.57;;;73.57;;
14066;SDS011;7108;42.684;23.350;2023-08-20T05:41:15;129.60;;;70.73;;
14066;SDS011;7108;42.684;23.350;2023-08-20T05:43:40;133.00;;;71.83;;
14066;SDS011;7108;42.684;23.350;2023-08-20T05:46:06;154.80;;;74.47;;
14066;SDS011;7108;42.684;23.350;2023-08-20T05:48:31;140.47;;;71.80;;
14066;SDS011;7108;42.684;23.350;2023-08-20T05:50:57;133.50;;;71.47;;
14066;SDS011;7108;42.684;23.350;2023-08-20T05:53:22;124.30;;;70.53;;
14066;SDS011;7108;42.684;23.350;2023-08-20T05:55:48;137.27;;;71.73;;
14066;SDS011;7108;42.684;23.350;2023-08-20T05:58:14;129.57;;;71.30;;
14066;SDS011;7108;42.684;23.350;2023-08-20T06:00:39;134.83;;;72.23;;
14066;SDS011;7108;42.684;23.350;2023-08-20T06:03:05;167.83;;;75.47;;
14066;SDS011;7108;42.684;23.350;2023-08-20T06:05:32;140.17;;;73.37;;
14066;SDS011;7108;42.684;23.350;2023-08-20T06:07:58;155.53;;;71.97;;
14066;SDS011;7108;42.684;23.350;2023-08-20T06:10:23;139.53;;;69.83;;
14066;SDS011;7108;42.684;23.350;2023-08-20T06:12:49;132.27;;;73.20;;
14066;SDS011;7108;42.684;23.350;2023-08-20T06:15:14;125.97;;;69.03;;
14066;SDS011;7108;42.684;23.350;2023-08-20T06:17:40;128.57;;;68.50;;
14066;SDS011;7108;42.684;23.350;2023-08-20T06:20:05;135.10;;;71.03;;
14066;SDS011;7108;42.684;23.350;2023-08-20T06:22:33;146.03;;;72.20;;
14066;SDS011;7108;42.684;23.350;2023-08-20T06:24:59;142.53;;;72.57;;
14066;SDS011;7108;42.684;23.350;2023-08-20T06:27:25;146.87;;;70.37;;
14066;SDS011;7108;42.684;23.350;2023-08-20T06:29:50;137.23;;;70.37;;
14066;SDS011;7108;42.684;23.350;2023-08-20T06:32:15;148.73;;;71.70;;
14066;SDS011;7108;42.684;23.350;2023-08-20T06:34:41;127.50;;;67.77;;
14066;SDS011;7108;42.684;23.350;2023-08-20T06:37:06;152.23;;;69.87;;
14066;SDS011;7108;42.684;23.350;2023-08-20T06:39:32;135.80;;;69.90;;
14066;SDS011;7108;42.684;23.350;2023-08-20T06:41:57;139.93;;;70.40;;
14066;SDS011;7108;42.684;23.350;2023-08-20T06:44:23;134.47;;;69.33;;
14066;SDS011;7108;42.684;23.350;2023-08-20T06:46:48;140.43;;;69.67;;
14066;SDS011;7108;42.684;23.350;2023-08-20T06:49:14;141.20;;;70.90;;
14066;SDS011;7108;42.684;23.350;2023-08-20T06:51:39;125.87;;;70.00;;
14066;SDS011;7108;42.684;23.350;2023-08-20T06:54:04;135.03;;;68.33;;
14066;SDS011;7108;42.684;23.350;2023-08-20T06:56:33;139.17;;;68.03;;
14066;SDS011;7108;42.684;23.350;2023-08-20T06:58:59;147.03;;;68.93;;
14066;SDS011;7108;42.684;23.350;2023-08-20T07:01:25;145.07;;;70.77;;
14066;SDS011;7108;42.684;23.350;2023-08-20T07:03:51;124.93;;;63.70;;
14066;SDS011;7108;42.684;23.350;2023-08-20T07:06:16;125.40;;;67.57;;
14066;SDS011;7108;42.684;23.350;2023-08-20T07:08:43;125.43;;;67.57;;
14066;SDS011;7108;42.684;23.350;2023-08-20T07:11:09;149.20;;;69.47;;
14066;SDS011;7108;42.684;23.350;2023-08-20T07:13:34;130.30;;;67.50;;
14066;SDS011;7108;42.684;23.350;2023-08-20T07:16:00;158.23;;;69.37;;
14066;SDS011;7108;42.684;23.350;2023-08-20T07:18:25;151.03;;;70.07;;
14066;SDS011;7108;42.684;23.350;2023-08-20T07:20:51;154.13;;;75.47;;
14066;SDS011;7108;42.684;23.350;2023-08-20T07:23:17;138.73;;;67.93;;
14066;SDS011;7108;42.684;23.350;2023-08-20T07:25:42;139.60;;;68.13;;
14066;SDS011;7108;42.684;23.350;2023-08-20T07:28:10;133.43;;;65.70;;
14066;SDS011;7108;42.684;23.350;2023-08-20T07:30:36;157.33;;;69.87;;
14066;SDS011;7108;42.684;23.350;2023-08-20T07:33:02;155.13;;;67.00;;
14066;SDS011;7108;42.684;23.350;2023-08-20T07:35:28;134.17;;;65.97;;
14066;SDS011;7108;42.684;23.350;2023-08-20T07:37:54;158.03;;;68.53;;
14066;SDS011;7108;42.684;23.350;2023-08-20T07:40:19;125.03;;;64.67;;
14066;SDS011;7108;42.684;23.350;2023-08-20T07:42:45;136.67;;;66.23;;
14066;SDS011;7108;42.684;23.350;2023-08-20T07:45:11;138.47;;;67.13;;
14066;SDS011;7108;42.684;23.350;2023-08-20T07:47:37;131.07;;;66.57;;
14066;SDS011;7108;42.684;23.350;2023-08-20T07:50:03;141.07;;;67.37;;
14066;SDS011;7108;42.684;23.350;2023-08-20T07:52:29;140.97;;;67.87;;
14066;SDS011;7108;42.684;23.350;2023-08-20T07:54:55;143.67;;;66.23;;
14066;SDS011;7108;42.684;23.350;2023-08-20T07:57:21;123.07;;;65.03;;
14066;SDS011;7108;42.684;23.350;2023-08-20T07:59:48;124.33;;;64.87;;
14066;SDS011;7108;42.684;23.350;2023-08-20T08:02:14;127.10;;;64.73;;
14066;SDS011;7108;42.684;23.350;2023-08-20T08:04:39;131.43;;;65.50;;
14066;SDS011;7108;42.684;23.350;2023-08-20T08:07:05;150.53;;;67.97;;
14066;SDS011;7108;42.684;23.350;2023-08-20T08:09:30;131.53;;;66.90;;
14066;SDS011;7108;42.684;23.350;2023-08-20T08:11:57;146.23;;;68.80;;
14066;SDS011;7108;42.684;23.350;2023-08-20T08:14:23;123.30;;;64.20;;
14066;SDS011;7108;42.684;23.350;2023-08-20T08:16:49;126.10;;;66.90;;
14066;SDS011;7108;42.684;23.350;2023-08-20T08:19:15;129.23;;;63.93;;
14066;SDS011;7108;42.684;23.350;2023-08-20T08:21:41;136.87;;;65.50;;
14066;SDS011;7108;42.684;23.350;2023-08-20T08:24:08;164.07;;;69.93;;
14066;SDS011;7108;42.684;23.350;2023-08-20T08:26:34;150.40;;;70.67;;
14066;SDS011;7108;42.684;23.350;2023-08-20T08:29:00;146.50;;;67.23;;
14066;SDS011;7108;42.684;23.350;2023-08-20T08:31:26;125.37;;;65.40;;
14066;SDS011;7108;42.684;23.350;2023-08-20T08:33:52;116.97;;;64.57;;
14066;SDS011;7108;42.684;23.350;2023-08-20T08:36:17;123.10;;;63.23;;
14066;SDS011;7108;42.684;23.350;2023-08-20T08:38:43;137.30;;;66.53;;
14066;SDS011;7108;42.684;23.350;2023-08-20T08:41:13;158.07;;;66.37;;
14066;SDS011;7108;42.684;23.350;2023-08-20T08:43:39;131.80;;;64.97;;
14066;SDS011;7108;42.684;23.350;2023-08-20T08:46:11;153.07;;;67.03;;
14066;SDS011;7108;42.684;23.350;2023-08-20T08:48:42;134.33;;;65.07;;
14066;SDS011;7108;42.684;23.350;2023-08-20T08:51:09;135.50;;;64.80;;
14066;SDS011;7108;42.684;23.350;2023-08-20T08:53:35;134.40;;;64.60;;
14066;SDS011;7108;42.684;23.350;2023-08-20T08:56:01;146.40;;;65.20;;
14066;SDS011;7108;42.684;23.350;2023-08-20T08:58:28;126.07;;;65.10;;
14066;SDS011;7108;42.684;23.350;2023-08-20T09:00:54;141.03;;;65.33;;
14066;SDS011;7108;42.684;23.350;2023-08-20T09:03:20;120.53;;;63.17;;
14066;SDS011;7108;42.684;23.350;2023-08-20T09:05:49;140.53;;;65.47;;
14066;SDS011;7108;42.684;23.350;2023-08-20T09:08:27;127.00;;;64.67;;
14066;SDS011;7108;42.684;23.350;2023-08-20T09:10:54;122.43;;;62.07;;
14066;SDS011;7108;42.684;23.350;2023-08-20T09:13:24;123.30;;;62.33;;
14066;SDS011;7108;42.684;23.350;2023-08-20T09:16:02;143.77;;;64.67;;
14066;SDS011;7108;42.684;23.350;2023-08-20T09:18:29;119.47;;;62.00;;
14066;SDS011;7108;42.684;23.350;2023-08-20T09:20:54;134.97;;;65.03;;
14066;SDS011;7108;42.684;23.350;2023-08-20T09:23:22;127.00;;;63.20;;
14066;SDS011;7108;42.684;23.350;2023-08-20T09:25:47;131.27;;;64.53;;
14066;SDS011;7108;42.684;23.350;2023-08-20T09:28:13;131.57;;;65.43;;
14066;SDS011;7108;42.684;23.350;2023-08-20T09:30:39;135.30;;;64.47;;
14066;SDS011;7108;42.684;23.350;2023-08-20T09:33:12;150.37;;;66.10;;
14066;SDS011;7108;42.684;23.350;2023-08-20T09:35:48;131.57;;;63.43;;
14066;SDS011;7108;42.684;23.350;2023-08-20T09:38:14;124.03;;;62.80;;
14066;SDS011;7108;42.684;23.350;2023-08-20T09:40:39;124.00;;;62.67;;
14066;SDS011;7108;42.684;23.350;2023-08-20T09:43:05;150.63;;;64.90;;
14066;SDS011;7108;42.684;23.350;2023-08-20T09:45:33;131.40;;;64.20;;
14066;SDS011;7108;42.684;23.350;2023-08-20T09:48:00;137.10;;;62.47;;
14066;SDS011;7108;42.684;23.350;2023-08-20T09:50:30;126.67;;;63.40;;
14066;SDS011;7108;42.684;23.350;2023-08-20T09:56:36;132.30;;;62.07;;
14066;SDS011;7108;42.684;23.350;2023-08-20T09:58:57;137.40;;;63.40;;
14066;SDS011;7108;42.684;23.350;2023-08-20T10:01:24;121.47;;;61.83;;
14066;SDS011;7108;42.684;23.350;2023-08-20T10:03:50;131.43;;;63.03;;
14066;SDS011;7108;42.684;23.350;2023-08-20T10:06:15;132.67;;;63.70;;
14066;SDS011;7108;42.684;23.350;2023-08-20T10:08:42;131.17;;;61.73;;
14066;SDS011;7108;42.684;23.350;2023-08-20T10:11:08;147.57;;;64.40;;
14066;SDS011;7108;42.684;23.350;2023-08-20T10:13:33;119.40;;;61.17;;
14066;SDS011;7108;42.684;23.350;2023-08-20T10:15:59;136.43;;;63.03;;
14066;SDS011;7108;42.684;23.350;2023-08-20T10:18:25;113.30;;;60.43;;
14066;SDS011;7108;42.684;23.350;2023-08-20T10:20:51;120.90;;;62.87;;
14066;SDS011;7108;42.684;23.350;2023-08-20T10:23:21;129.40;;;64.20;;
14066;SDS011;7108;42.684;23.350;2023-08-20T10:25:51;127.57;;;63.83;;
14066;SDS011;7108;42.684;23.350;2023-08-20T10:28:21;144.27;;;66.73;;
14066;SDS011;7108;42.684;23.350;2023-08-20T10:31:04;124.43;;;63.83;;
14066;SDS011;7108;42.684;23.350;2023-08-20T10:33:33;110.87;;;61.20;;
14066;SDS011;7108;42.684;23.350;2023-08-20T10:36:06;140.60;;;64.70;;
14066;SDS011;7108;42.684;23.350;2023-08-20T10:38:53;125.87;;;62.70;;
14066;SDS011;7108;42.684;23.350;2023-08-20T10:41:29;113.73;;;64.77;;
14066;SDS011;7108;42.684;23.350;2023-08-20T10:44:02;113.17;;;60.93;;
14066;SDS011;7108;42.684;23.350;2023-08-20T10:46:28;123.53;;;62.60;;
14066;SDS011;7108;42.684;23.350;2023-08-20T10:49:00;139.20;;;63.73;;
14066;SDS011;7108;42.684;23.350;2023-08-20T10:51:32;112.47;;;61.30;;
14066;SDS011;7108;42.684;23.350;2023-08-20T10:59:07;139.33;;;64.07;;
14066;SDS011;7108;42.684;23.350;2023-08-20T11:01:34;115.93;;;62.47;;
14066;SDS011;7108;42.684;23.350;2023-08-20T11:04:00;144.20;;;64.50;;
14066;SDS011;7108;42.684;23.350;2023-08-20T11:06:31;126.37;;;64.87;;
14066;SDS011;7108;42.684;23.350;2023-08-20T11:08:57;145.07;;;65.00;;
14066;SDS011;7108;42.684;23.350;2023-08-20T11:11:23;128.37;;;65.63;;
14066;SDS011;7108;42.684;23.350;2023-08-20T11:13:49;124.67;;;64.17;;
14066;SDS011;7108;42.684;23.350;2023-08-20T11:16:14;134.27;;;64.63;;
14066;SDS011;7108;42.684;23.350;2023-08-20T11:18:40;138.83;;;64.47;;
14066;SDS011;7108;42.684;23.350;2023-08-20T11:21:06;144.90;;;65.10;;
14066;SDS011;7108;42.684;23.350;2023-08-20T11:23:32;119.27;;;63.27;;
14066;SDS011;7108;42.684;23.350;2023-08-20T11:25:58;150.00;;;65.40;;
14066;SDS011;7108;42.684;23.350;2023-08-20T11:28:27;112.80;;;63.77;;
14066;SDS011;7108;42.684;23.350;2023-08-20T11:30:54;139.77;;;65.70;;
14066;SDS011;7108;42.684;23.350;2023-08-20T11:33:21;128.77;;;66.83;;
14066;SDS011;7108;42.684;23.350;2023-08-20T11:35:47;117.07;;;63.90;;
14066;SDS011;7108;42.684;23.350;2023-08-20T11:38:13;117.07;;;63.27;;
14066;SDS011;7108;42.684;23.350;2023-08-20T11:40:39;120.73;;;63.47;;
14066;SDS011;7108;42.684;23.350;2023-08-20T11:43:05;138.80;;;64.73;;
14066;SDS011;7108;42.684;23.350;2023-08-20T11:45:30;121.00;;;63.73;;
14066;SDS011;7108;42.684;23.350;2023-08-20T11:47:57;129.23;;;64.47;;
14066;SDS011;7108;42.684;23.350;2023-08-20T11:50:23;120.80;;;63.80;;
14066;SDS011;7108;42.684;23.350;2023-08-20T11:52:48;126.73;;;63.67;;
14066;SDS011;7108;42.684;23.350;2023-08-20T11:55:21;128.00;;;65.93;;
14066;SDS011;7108;42.684;23.350;2023-08-20T11:57:49;122.67;;;65.43;;
14066;SDS011;7108;42.684;23.350;2023-08-20T12:00:23;120.93;;;63.43;;
14066;SDS011;7108;42.684;23.350;2023-08-20T12:02:55;128.93;;;63.60;;
14066;SDS011;7108;42.684;23.350;2023-08-20T12:05:29;130.03;;;65.00;;
14066;SDS011;7108;42.684;23.350;2023-08-20T12:07:59;114.60;;;62.87;;
14066;SDS011;7108;42.684;23.350;2023-08-20T12:10:29;137.33;;;66.27;;
14066;SDS011;7108;42.684;23.350;2023-08-20T12:12:56;146.23;;;65.77;;
14066;SDS011;7108;42.684;23.350;2023-08-20T12:15:23;129.93;;;64.63;;
14066;SDS011;7108;42.684;23.350;2023-08-20T12:17:59;128.17;;;63.90;;
14066;SDS011;7108;42.684;23.350;2023-08-20T12:20:26;131.23;;;65.57;;
14066;SDS011;7108;42.684;23.350;2023-08-20T12:22:53;134.40;;;65.30;;
14066;SDS011;7108;42.684;23.350;2023-08-20T12:25:18;124.17;;;65.00;;
14066;SDS011;7108;42.684;23.350;2023-08-20T12:27:44;121.40;;;64.83;;
14066;SDS011;7108;42.684;23.350;2023-08-20T12:30:09;136.80;;;66.23;;
14066;SDS011;7108;42.684;23.350;2023-08-20T12:32:35;128.13;;;64.50;;
14066;SDS011;7108;42.684;23.350;2023-08-20T12:35:01;144.33;;;66.10;;
14066;SDS011;7108;42.684;23.350;2023-08-20T12:37:27;127.50;;;65.70;;
14066;SDS011;7108;42.684;23.350;2023-08-20T12:39:53;121.37;;;63.10;;
14066;SDS011;7108;42.684;23.350;2023-08-20T12:42:18;121.23;;;65.03;;
14066;SDS011;7108;42.684;23.350;2023-08-20T12:44:44;117.97;;;64.30;;
14066;SDS011;7108;42.684;23.350;2023-08-20T12:47:09;134.23;;;64.67;;
14066;SDS011;7108;42.684;23.350;2023-08-20T12:49:35;115.33;;;64.30;;
14066;SDS011;7108;42.684;23.350;2023-08-20T12:52:00;140.60;;;66.47;;
14066;SDS011;7108;42.684;23.350;2023-08-20T12:54:25;136.00;;;67.13;;
14066;SDS011;7108;42.684;23.350;2023-08-20T12:56:51;133.77;;;67.07;;
14066;SDS011;7108;42.684;23.350;2023-08-20T12:59:17;126.37;;;65.87;;
14066;SDS011;7108;42.684;23.350;2023-08-20T13:01:42;129.43;;;65.00;;
14066;SDS011;7108;42.684;23.350;2023-08-20T13:04:08;135.87;;;64.73;;
14066;SDS011;7108;42.684;23.350;2023-08-20T13:06:34;132.10;;;64.90;;
14066;SDS011;7108;42.684;23.350;2023-08-20T13:09:00;150.47;;;66.37;;
14066;SDS011;7108;42.684;23.350;2023-08-20T13:11:25;137.17;;;66.10;;
14066;SDS011;7108;42.684;23.350;2023-08-20T13:13:53;129.87;;;64.67;;
14066;SDS011;7108;42.684;23.350;2023-08-20T13:16:18;123.07;;;63.57;;
14066;SDS011;7108;42.684;23.350;2023-08-20T13:18:44;127.20;;;65.57;;
14066;SDS011;7108;42.684;23.350;2023-08-20T13:21:10;137.13;;;65.43;;
14066;SDS011;7108;42.684;23.350;2023-08-20T13:23:36;129.13;;;66.47;;
14066;SDS011;7108;42.684;23.350;2023-08-20T13:26:01;153.07;;;69.10;;
14066;SDS011;7108;42.684;23.350;2023-08-20T13:28:26;127.53;;;65.30;;
14066;SDS011;7108;42.684;23.350;2023-08-20T13:30:52;129.00;;;66.03;;
14066;SDS011;7108;42.684;23.350;2023-08-20T13:33:17;116.27;;;64.03;;
14066;SDS011;7108;42.684;23.350;2023-08-20T13:35:43;118.30;;;63.87;;
14066;SDS011;7108;42.684;23.350;2023-08-20T13:38:08;139.03;;;64.63;;
14066;SDS011;7108;42.684;23.350;2023-08-20T13:40:34;120.83;;;63.50;;
14066;SDS011;7108;42.684;23.350;2023-08-20T13:42:59;143.53;;;67.00;;
14066;SDS011;7108;42.684;23.350;2023-08-20T13:45:24;131.83;;;64.90;;
14066;SDS011;7108;42.684;23.350;2023-08-20T13:47:50;119.00;;;62.70;;
14066;SDS011;7108;42.684;23.350;2023-08-20T13:50:16;110.93;;;61.63;;
14066;SDS011;7108;42.684;23.350;2023-08-20T13:52:41;119.17;;;63.47;;
14066;SDS011;7108;42.684;23.350;2023-08-20T13:55:07;148.33;;;65.13;;
14066;SDS011;7108;42.684;23.350;2023-08-20T13:57:33;136.37;;;65.20;;
14066;SDS011;7108;42.684;23.350;2023-08-20T13:59:58;151.90;;;66.73;;
14066;SDS011;7108;42.684;23.350;2023-08-20T14:02:24;168.47;;;69.17;;
14066;SDS011;7108;42.684;23.350;2023-08-20T14:04:49;133.67;;;66.27;;
14066;SDS011;7108;42.684;23.350;2023-08-20T14:07:15;153.77;;;68.13;;
14066;SDS011;7108;42.684;23.350;2023-08-20T14:09:40;140.37;;;66.47;;
14066;SDS011;7108;42.684;23.350;2023-08-20T14:12:06;182.90;;;71.80;;
14066;SDS011;7108;42.684;23.350;2023-08-20T14:14:32;139.90;;;65.73;;
14066;SDS011;7108;42.684;23.350;2023-08-20T14:16:57;166.03;;;68.07;;
14066;SDS011;7108;42.684;23.350;2023-08-20T14:19:23;159.63;;;67.47;;
14066;SDS011;7108;42.684;23.350;2023-08-20T14:21:48;152.60;;;66.90;;